createdAt,value
2023-07-25T00:02:15.556Z,1.85
2023-07-25T00:04:48.611Z,3.22
2023-07-25T00:07:21.623Z,2.03
2023-07-25T00:09:55.938Z,1.40
2023-07-25T00:12:29.050Z,2.30
2023-07-25T00:15:02.820Z,1.60
2023-07-25T00:17:36.005Z,2.95
2023-07-25T00:20:09.991Z,2.42
2023-07-25T00:22:47.107Z,2.20
2023-07-25T00:25:20.636Z,2.20
2023-07-25T00:27:53.920Z,2.55
2023-07-25T00:30:27.409Z,2.58
2023-07-25T00:33:00.445Z,2.05
2023-07-25T00:35:34.078Z,2.97
2023-07-25T00:38:07.659Z,2.08
2023-07-25T00:40:41.918Z,4.07
2023-07-25T00:43:15.183Z,2.42
2023-07-25T00:45:48.867Z,3.63
2023-07-25T00:48:22.070Z,3.47
2023-07-25T00:50:55.816Z,2.00
2023-07-25T00:53:29.202Z,2.58
2023-07-25T00:56:06.007Z,2.22
2023-07-25T00:58:39.266Z,2.50
2023-07-25T01:01:12.946Z,2.42
2023-07-25T01:03:46.485Z,2.35
2023-07-25T01:06:21.856Z,2.47
2023-07-25T01:08:56.570Z,4.20
2023-07-25T01:11:30.101Z,3.38
2023-07-25T01:14:03.743Z,2.78
2023-07-25T01:16:37.348Z,2.30
2023-07-25T01:19:12.325Z,3.30
2023-07-25T01:21:45.730Z,2.90
2023-07-25T01:24:18.991Z,1.83
2023-07-25T01:26:52.587Z,2.42
2023-07-25T01:29:25.601Z,2.85
2023-07-25T01:31:58.749Z,2.40
2023-07-25T01:34:33.019Z,2.63
2023-07-25T01:37:07.166Z,3.88
2023-07-25T01:39:41.426Z,2.80
2023-07-25T01:42:14.437Z,2.60
2023-07-25T01:44:47.673Z,2.92
2023-07-25T01:47:26.680Z,3.35
2023-07-25T01:49:59.979Z,2.97
2023-07-25T01:52:33.719Z,2.30
2023-07-25T01:55:07.444Z,2.10
2023-07-25T01:57:40.452Z,2.65
2023-07-25T02:00:14.475Z,2.83
2023-07-25T02:02:48.965Z,2.53
2023-07-25T02:05:22.761Z,4.45
2023-07-25T02:07:55.736Z,2.78
2023-07-25T02:10:29.026Z,3.95
2023-07-25T02:13:02.285Z,3.72
2023-07-25T02:15:38.386Z,3.47
2023-07-25T02:18:11.420Z,3.42
2023-07-25T02:20:45.779Z,3.65
2023-07-25T02:23:19.073Z,2.42
2023-07-25T02:25:52.478Z,3.50
2023-07-25T02:28:28.262Z,2.53
2023-07-25T02:31:01.291Z,2.80
2023-07-25T02:33:34.439Z,3.67
2023-07-25T02:36:07.686Z,2.75
2023-07-25T02:38:40.905Z,3.20
2023-07-25T02:41:15.575Z,3.38
2023-07-25T02:43:49.337Z,2.38
2023-07-25T02:46:22.401Z,4.03
2023-07-25T02:48:55.514Z,2.97
2023-07-25T02:51:29.799Z,4.50
2023-07-25T02:54:03.333Z,4.10
2023-07-25T02:56:36.602Z,3.38
2023-07-25T02:59:09.721Z,3.95
2023-07-25T03:01:42.743Z,2.83
2023-07-25T03:04:16.075Z,3.80
2023-07-25T03:06:49.083Z,4.28
2023-07-25T03:09:22.541Z,6.13
2023-07-25T03:11:55.649Z,3.60
2023-07-25T03:14:28.760Z,3.65
2023-07-25T03:17:01.842Z,4.65
2023-07-25T03:19:34.932Z,6.38
2023-07-25T03:22:08.121Z,3.70
2023-07-25T03:24:41.510Z,4.38
2023-07-25T03:27:15.973Z,3.90
2023-07-25T03:29:49.090Z,4.43
2023-07-25T03:32:22.110Z,7.32
2023-07-25T03:34:55.311Z,3.72
2023-07-25T03:37:28.292Z,5.03
2023-07-25T03:40:01.402Z,3.45
2023-07-25T03:42:34.422Z,2.73
2023-07-25T03:45:08.167Z,2.97
2023-07-25T03:47:41.262Z,3.53
2023-07-25T03:50:14.670Z,2.50
2023-07-25T03:52:47.619Z,2.67
2023-07-25T03:55:20.671Z,2.88
2023-07-25T03:57:53.703Z,3.70
2023-07-25T04:00:26.780Z,2.63
2023-07-25T04:03:13.108Z,2.20
2023-07-25T04:05:47.731Z,2.70
2023-07-25T04:08:20.800Z,3.97
2023-07-25T04:10:53.791Z,1.90
2023-07-25T04:13:26.836Z,2.90
2023-07-25T04:15:59.972Z,2.08
2023-07-25T04:18:33.357Z,2.33
2023-07-25T04:21:07.472Z,1.97
2023-07-25T04:23:40.814Z,3.78
2023-07-25T04:26:13.931Z,2.80
2023-07-25T04:28:49.803Z,1.77
2023-07-25T04:31:22.830Z,3.03
2023-07-25T04:33:56.133Z,2.27
2023-07-25T04:36:30.769Z,3.67
2023-07-25T04:39:04.215Z,2.23
2023-07-25T04:41:37.554Z,1.58
2023-07-25T04:44:10.662Z,4.20
2023-07-25T04:46:43.629Z,3.23
2023-07-25T04:49:18.361Z,2.70
2023-07-25T04:51:51.469Z,2.53
2023-07-25T04:54:24.775Z,3.83
2023-07-25T04:56:57.840Z,4.40
2023-07-25T04:59:33.391Z,2.83
2023-07-25T05:02:06.399Z,4.87
2023-07-25T05:04:39.631Z,3.53
2023-07-25T05:07:13.961Z,2.53
2023-07-25T05:09:46.991Z,2.83
2023-07-25T05:12:20.044Z,2.30
2023-07-25T05:14:53.219Z,2.53
2023-07-25T05:17:26.442Z,3.00
2023-07-25T05:19:59.457Z,2.67
2023-07-25T05:22:32.487Z,2.90
2023-07-25T05:25:05.874Z,2.93
2023-07-25T05:27:39.127Z,3.00
2023-07-25T05:30:12.481Z,3.17
2023-07-25T05:32:45.976Z,2.30
2023-07-25T05:35:19.360Z,2.80
2023-07-25T05:37:53.339Z,2.93
2023-07-25T05:40:27.834Z,2.90
2023-07-25T05:43:00.812Z,3.47
2023-07-25T05:45:34.169Z,3.80
2023-07-25T05:48:07.833Z,3.00
2023-07-25T05:50:41.094Z,2.90
2023-07-25T05:53:14.080Z,3.10
2023-07-25T05:55:47.944Z,3.70
2023-07-25T05:58:20.896Z,2.70
2023-07-25T06:00:54.187Z,3.67
2023-07-25T06:03:27.917Z,2.97
2023-07-25T06:06:00.988Z,2.47
2023-07-25T06:08:34.011Z,2.13
2023-07-25T06:11:07.337Z,1.83
2023-07-25T06:13:40.410Z,1.80
2023-07-25T06:16:13.776Z,1.93
2023-07-25T06:18:46.807Z,2.47
2023-07-25T06:21:20.125Z,2.27
2023-07-25T06:23:53.110Z,2.50
2023-07-25T06:26:26.259Z,2.20
2023-07-25T06:28:59.482Z,3.60
2023-07-25T06:31:33.164Z,2.50
2023-07-25T06:34:06.777Z,1.73
2023-07-25T06:36:40.561Z,2.27
2023-07-25T06:39:13.690Z,2.00
2023-07-25T06:41:47.076Z,2.13
2023-07-25T06:44:25.038Z,2.60
2023-07-25T06:46:58.319Z,1.70
2023-07-25T06:49:31.670Z,2.20
2023-07-25T06:52:05.290Z,2.00
2023-07-25T06:54:39.675Z,2.83
2023-07-25T06:57:12.828Z,2.60
2023-07-25T06:59:46.465Z,2.47
2023-07-25T07:02:20.206Z,3.77
2023-07-25T07:04:54.020Z,2.20
2023-07-25T07:07:27.330Z,2.10
2023-07-25T07:10:00.253Z,2.37
2023-07-25T07:12:33.377Z,2.77
2023-07-25T07:15:06.972Z,2.60
2023-07-25T07:17:40.231Z,2.90
2023-07-25T07:20:13.400Z,2.67
2023-07-25T07:22:46.478Z,3.13
2023-07-25T07:25:19.649Z,3.10
2023-07-25T07:27:53.881Z,2.58
2023-07-25T07:30:27.014Z,3.17
2023-07-25T07:33:00.299Z,2.40
2023-07-25T07:35:33.535Z,3.22
2023-07-25T07:38:06.456Z,2.58
2023-07-25T07:40:39.553Z,2.27
2023-07-25T07:43:12.543Z,3.43
2023-07-25T07:45:45.791Z,2.60
2023-07-25T07:48:19.059Z,3.10
2023-07-25T07:50:52.099Z,2.95
2023-07-25T07:53:25.068Z,3.75
2023-07-25T07:55:58.517Z,3.40
2023-07-25T07:58:31.705Z,3.95
2023-07-25T08:01:04.838Z,3.60
2023-07-25T08:03:37.807Z,3.22
2023-07-25T08:06:11.041Z,3.10
2023-07-25T08:08:44.210Z,6.18
2023-07-25T08:11:17.457Z,2.78
2023-07-25T08:13:50.430Z,4.03
2023-07-25T08:16:23.754Z,2.95
2023-07-25T08:18:58.692Z,2.80
2023-07-25T08:21:34.644Z,3.72
2023-07-25T08:24:09.528Z,3.25
2023-07-25T08:26:42.774Z,4.05
2023-07-25T08:29:16.276Z,3.83
2023-07-25T08:31:49.358Z,3.37
2023-07-25T08:34:22.388Z,3.55
2023-07-25T08:36:55.504Z,3.33
2023-07-25T08:39:28.724Z,4.18
2023-07-25T08:42:07.298Z,3.10
2023-07-25T08:44:41.291Z,4.80
2023-07-25T08:47:22.371Z,3.35
2023-07-25T08:49:58.074Z,3.50
2023-07-25T08:52:33.244Z,4.07
2023-07-25T08:55:07.054Z,3.80
2023-07-25T08:57:41.444Z,3.50
2023-07-25T09:00:15.632Z,4.55
2023-07-25T09:02:53.272Z,5.45
2023-07-25T09:05:30.459Z,4.22
2023-07-25T09:08:04.455Z,4.03
2023-07-25T09:10:38.968Z,3.92
2023-07-25T09:13:12.278Z,4.07
2023-07-25T09:15:45.407Z,3.65
2023-07-25T09:18:19.560Z,3.70
2023-07-25T09:20:52.788Z,4.28
2023-07-25T09:23:25.964Z,3.75
2023-07-25T09:26:13.882Z,3.50
2023-07-25T09:29:00.354Z,3.17
2023-07-25T09:31:44.481Z,3.42
2023-07-25T09:34:19.048Z,4.40
2023-07-25T09:36:52.140Z,4.27
2023-07-25T09:39:25.343Z,4.70
2023-07-25T09:41:59.198Z,4.80
2023-07-25T09:44:35.341Z,5.30
2023-07-25T09:47:09.162Z,3.90
2023-07-25T09:49:49.700Z,5.00
2023-07-25T09:52:24.084Z,5.33
2023-07-25T09:54:58.617Z,5.50
2023-07-25T09:57:36.676Z,5.70
2023-07-25T10:00:10.870Z,4.93
2023-07-25T10:02:45.864Z,5.90
2023-07-25T10:05:19.207Z,6.40
2023-07-25T10:07:56.156Z,5.33
2023-07-25T10:10:30.857Z,6.20
2023-07-25T10:13:04.501Z,7.53
2023-07-25T10:15:38.163Z,6.63
2023-07-25T10:18:27.654Z,8.80
2023-07-25T10:21:01.307Z,7.37
2023-07-25T10:23:36.146Z,8.20
2023-07-25T10:26:14.192Z,7.70
2023-07-25T10:28:47.524Z,10.33
2023-07-25T10:31:32.844Z,10.57
2023-07-25T10:34:06.291Z,9.67
2023-07-25T10:36:40.904Z,10.57
2023-07-25T10:39:26.600Z,9.60
2023-07-25T10:42:00.838Z,10.33
2023-07-25T10:44:38.392Z,8.07
2023-07-25T10:47:46.976Z,10.20
2023-07-25T10:50:25.680Z,11.20
2023-07-25T10:52:58.998Z,11.07
2023-07-25T10:55:33.194Z,10.63
2023-07-25T10:58:10.954Z,9.07
2023-07-25T11:00:46.811Z,10.45
2023-07-25T11:03:31.136Z,11.20
2023-07-25T11:06:09.900Z,13.50
2023-07-25T11:08:43.486Z,9.65
2023-07-25T11:11:17.142Z,10.27
2023-07-25T11:13:50.200Z,10.27
2023-07-25T11:16:24.187Z,9.90
2023-07-25T11:18:57.659Z,9.77
2023-07-25T11:21:31.277Z,8.60
2023-07-25T11:24:07.564Z,9.43
2023-07-25T11:26:41.117Z,10.50
2023-07-25T11:29:14.861Z,8.85
2023-07-25T11:31:49.794Z,7.95
2023-07-25T11:34:23.061Z,7.90
2023-07-25T11:36:56.264Z,7.60
2023-07-25T11:39:29.275Z,9.15
2023-07-25T11:42:02.281Z,9.60
2023-07-25T11:44:35.533Z,9.05
2023-07-25T12:14:43.867Z,6.63
2023-07-25T14:43:37.841Z,4.40
2023-07-25T14:59:56.895Z,2.95
2023-07-25T15:05:45.663Z,5.57
2023-07-25T15:08:18.927Z,2.90
2023-07-25T15:10:52.303Z,2.90
2023-07-25T15:13:28.262Z,2.15
2023-07-25T15:16:06.179Z,2.65
2023-07-25T15:19:13.414Z,4.70
2023-07-25T15:21:48.193Z,1.90
2023-07-25T15:24:25.657Z,3.05
2023-07-25T15:27:15.419Z,4.90
2023-07-25T15:54:37.930Z,7.88
2023-07-25T15:57:11.640Z,1.65
2023-07-25T16:00:00.076Z,2.55
2023-07-25T16:02:35.159Z,2.28
2023-07-25T16:08:48.818Z,14.35
2023-07-25T16:18:48.705Z,2.47
2023-07-25T16:54:38.742Z,2.80
2023-07-25T18:09:32.590Z,2.85
2023-07-25T18:12:05.965Z,3.60
